createdAt,value
2023-05-11T00:00:47.484Z,80.53
2023-05-11T00:03:15.655Z,80.92
2023-05-11T00:05:43.658Z,80.85
2023-05-11T00:08:11.545Z,80.65
2023-05-11T00:10:40.869Z,81.12
2023-05-11T00:13:08.709Z,82.12
2023-05-11T00:15:36.600Z,81.59
2023-05-11T00:18:04.622Z,80.99
2023-05-11T00:20:32.588Z,80.93
2023-05-11T00:23:00.482Z,81.60
2023-05-11T00:25:28.440Z,80.81
2023-05-11T00:27:57.695Z,81.03
2023-05-11T00:30:25.724Z,81.16
2023-05-11T00:32:53.595Z,80.42
2023-05-11T00:35:21.708Z,80.34
2023-05-11T00:37:49.586Z,80.83
2023-05-11T00:40:17.599Z,81.45
2023-05-11T00:42:45.537Z,80.89
2023-05-11T00:45:14.766Z,81.90
2023-05-11T00:47:44.964Z,81.02
2023-05-11T00:50:13.249Z,81.18
2023-05-11T00:52:42.378Z,81.07
2023-05-11T00:55:11.249Z,80.48
2023-05-11T00:57:39.813Z,82.50
2023-05-11T01:00:09.040Z,82.68
2023-05-11T01:02:38.724Z,81.63
2023-05-11T01:05:07.848Z,81.92
2023-05-11T01:07:39.893Z,81.09
2023-05-11T01:10:16.599Z,81.37
2023-05-11T01:12:54.227Z,81.19
2023-05-11T01:15:27.431Z,81.53
2023-05-11T01:18:02.488Z,83.20
2023-05-11T01:20:31.768Z,82.59
2023-05-11T01:23:35.542Z,84.95
2023-05-11T01:26:12.569Z,83.92
2023-05-11T01:29:06.043Z,83.78
2023-05-11T01:31:38.781Z,82.54
2023-05-11T01:34:11.591Z,83.38
2023-05-11T01:36:45.402Z,82.92
2023-05-11T01:39:15.074Z,83.15
2023-05-11T01:41:46.884Z,82.01
2023-05-11T01:44:18.085Z,82.96
2023-05-11T01:46:48.605Z,83.92
2023-05-11T01:49:21.524Z,82.40
2023-05-11T01:51:51.404Z,81.65
2023-05-11T01:54:21.274Z,82.13
2023-05-11T01:56:51.229Z,84.92
2023-05-11T01:59:19.950Z,85.84
2023-05-11T02:01:49.464Z,85.40
2023-05-11T02:04:20.104Z,85.70
2023-05-11T02:06:49.389Z,84.45
2023-05-11T02:09:19.513Z,83.08
2023-05-11T02:11:49.881Z,83.35
2023-05-11T02:14:20.868Z,82.48
2023-05-11T02:16:51.675Z,83.43
2023-05-11T02:19:21.956Z,82.48
2023-05-11T02:21:51.904Z,82.70
2023-05-11T02:24:22.219Z,81.92
2023-05-11T02:26:50.237Z,80.47
2023-05-11T02:29:18.454Z,79.58
2023-05-11T02:31:50.860Z,79.43
2023-05-11T02:34:25.850Z,79.40
2023-05-11T02:37:00.060Z,78.51
2023-05-11T02:39:34.581Z,79.23
2023-05-11T02:42:10.419Z,79.63
2023-05-11T02:44:40.359Z,79.23
2023-05-11T02:47:13.909Z,77.83
2023-05-11T02:49:44.153Z,79.03
2023-05-11T02:52:14.973Z,78.57
2023-05-11T02:54:46.969Z,77.99
2023-05-11T02:57:14.945Z,77.14
2023-05-11T02:59:43.329Z,76.86
2023-05-11T03:02:13.302Z,77.18
2023-05-11T03:04:42.162Z,76.54
2023-05-11T03:07:10.919Z,77.47
2023-05-11T03:09:39.026Z,76.82
2023-05-11T03:12:08.197Z,76.00
2023-05-11T03:14:39.157Z,75.69
2023-05-11T03:17:07.967Z,76.17
2023-05-11T03:19:41.952Z,75.69
2023-05-11T03:22:12.539Z,76.29
2023-05-11T03:24:41.190Z,75.54
2023-05-11T03:27:10.080Z,75.83
2023-05-11T03:29:42.199Z,75.27
2023-05-11T03:32:10.364Z,75.33
2023-05-11T03:34:41.368Z,75.87
2023-05-11T03:37:15.290Z,76.29
2023-05-11T03:39:46.605Z,75.82
2023-05-11T03:42:17.668Z,75.73
2023-05-11T03:44:47.453Z,76.14
2023-05-11T03:47:19.725Z,76.26
2023-05-11T03:49:49.941Z,76.43
2023-05-11T03:52:18.651Z,75.78
2023-05-11T03:54:46.561Z,76.12
2023-05-11T03:57:15.339Z,75.98
2023-05-11T03:59:43.200Z,75.45
2023-05-11T04:02:11.184Z,75.67
2023-05-11T04:04:39.131Z,75.45
2023-05-11T04:07:08.425Z,76.12
2023-05-11T04:09:36.243Z,75.89
2023-05-11T04:12:04.301Z,76.41
2023-05-11T04:14:32.230Z,76.22
2023-05-11T04:17:00.663Z,76.17
2023-05-11T04:19:28.750Z,76.65
2023-05-11T04:21:56.574Z,75.92
2023-05-11T04:24:25.794Z,76.87
2023-05-11T04:26:57.006Z,77.15
2023-05-11T04:29:27.099Z,76.26
2023-05-11T04:31:54.946Z,76.76
2023-05-11T04:34:23.410Z,76.16
2023-05-11T04:36:53.425Z,76.88
2023-05-11T04:39:21.715Z,76.04
2023-05-11T04:41:51.144Z,75.43
2023-05-11T04:44:19.021Z,76.63
2023-05-11T04:46:49.291Z,75.45
2023-05-11T04:49:17.288Z,75.54
2023-05-11T04:51:45.540Z,77.10
2023-05-11T04:54:13.368Z,76.21
2023-05-11T04:56:41.633Z,76.19
2023-05-11T04:59:11.583Z,76.15
2023-05-11T05:01:39.447Z,75.92
2023-05-11T05:04:08.169Z,76.32
2023-05-11T05:06:38.227Z,75.97
2023-05-11T05:09:06.986Z,76.11
2023-05-11T05:11:35.587Z,75.48
2023-05-11T05:14:03.496Z,75.86
2023-05-11T05:16:32.851Z,75.40
2023-05-11T05:19:00.786Z,74.56
2023-05-11T05:21:29.166Z,75.02
2023-05-11T05:23:57.714Z,75.85
2023-05-11T05:26:25.782Z,75.42
2023-05-11T05:28:54.203Z,75.64
2023-05-11T05:31:22.215Z,75.56
2023-05-11T05:33:52.025Z,75.50
2023-05-11T05:36:19.994Z,75.89
2023-05-11T05:38:49.082Z,75.93
2023-05-11T05:41:17.307Z,75.82
2023-05-11T05:43:46.616Z,75.02
2023-05-11T05:46:15.627Z,75.85
2023-05-11T05:48:43.680Z,75.72
2023-05-11T05:51:12.982Z,75.39
2023-05-11T05:53:40.939Z,78.26
2023-05-11T05:56:09.086Z,75.83
2023-05-11T05:58:37.102Z,75.08
2023-05-11T06:01:05.380Z,74.59
2023-05-11T06:03:33.616Z,75.21
2023-05-11T06:06:02.447Z,75.08
2023-05-11T06:08:34.872Z,74.90
2023-05-11T06:11:02.865Z,75.89
2023-05-11T06:13:30.815Z,75.06
2023-05-11T06:16:00.840Z,74.55
2023-05-11T06:18:34.768Z,76.31
2023-05-11T06:21:04.861Z,76.06
2023-05-11T06:23:35.049Z,76.37
2023-05-11T06:26:03.772Z,75.77
2023-05-11T06:28:33.740Z,77.37
2023-05-11T06:31:05.900Z,76.09
2023-05-11T06:33:36.860Z,76.21
2023-05-11T06:36:09.866Z,75.35
2023-05-11T06:38:39.089Z,75.80
2023-05-11T06:41:11.208Z,75.41
2023-05-11T06:43:39.219Z,75.92
2023-05-11T06:46:17.971Z,77.31
2023-05-11T06:48:45.909Z,78.77
2023-05-11T06:51:14.284Z,76.95
2023-05-11T06:53:45.229Z,79.50
2023-05-11T06:56:13.142Z,78.18
2023-05-11T06:58:42.629Z,77.60
2023-05-11T07:01:11.997Z,77.74
2023-05-11T07:03:42.235Z,76.61
2023-05-11T07:06:11.367Z,75.79
2023-05-11T07:08:39.219Z,77.58
2023-05-11T07:11:09.098Z,79.78
2023-05-11T07:13:36.931Z,79.52
2023-05-11T07:16:05.099Z,77.94
2023-05-11T07:18:33.084Z,77.93
2023-05-11T07:21:03.464Z,77.70
2023-05-11T07:23:31.734Z,78.13
2023-05-11T07:25:59.720Z,78.44
2023-05-11T07:28:31.035Z,79.44
2023-05-11T07:30:58.948Z,81.28
2023-05-11T07:33:29.897Z,81.25
2023-05-11T07:35:57.981Z,81.32
2023-05-11T07:38:26.445Z,83.17
2023-05-11T07:40:54.508Z,81.44
2023-05-11T07:43:24.674Z,83.62
2023-05-11T07:45:55.581Z,83.45
2023-05-11T07:48:23.513Z,83.36
2023-05-11T07:50:51.946Z,81.87
2023-05-11T07:53:20.214Z,82.93
2023-05-11T07:55:48.130Z,83.29
2023-05-11T07:58:15.942Z,86.02
2023-05-11T08:00:43.861Z,84.64
2023-05-11T08:03:13.217Z,85.17
2023-05-11T08:05:41.183Z,85.75
2023-05-11T08:08:09.131Z,82.07
2023-05-11T08:10:39.205Z,82.14
2023-05-11T08:13:07.648Z,82.52
2023-05-11T08:15:35.410Z,83.25
2023-05-11T08:18:03.756Z,82.20
2023-05-11T08:20:33.182Z,81.07
2023-05-11T08:23:01.049Z,80.79
2023-05-11T08:25:28.963Z,81.42
2023-05-11T08:27:56.874Z,82.42
2023-05-11T08:30:24.873Z,81.87
2023-05-11T08:32:58.521Z,80.36
2023-05-11T08:35:27.224Z,82.56
2023-05-11T08:37:56.563Z,81.04
2023-05-11T08:40:27.694Z,80.40
2023-05-11T08:43:01.073Z,81.50
2023-05-11T08:45:33.298Z,84.15
2023-05-11T08:48:01.359Z,81.29
2023-05-11T08:50:29.290Z,80.97
2023-05-11T08:52:58.785Z,80.69
2023-05-11T08:55:27.423Z,79.39
2023-05-11T08:57:57.505Z,79.97
2023-05-11T09:00:25.741Z,78.38
2023-05-11T09:02:54.317Z,79.79
2023-05-11T09:05:23.126Z,80.59
2023-05-11T09:07:54.225Z,82.61
2023-05-11T09:10:23.533Z,81.86
2023-05-11T09:12:51.340Z,78.49
2023-05-11T09:15:19.382Z,80.70
2023-05-11T09:17:49.859Z,79.49
2023-05-11T09:20:27.553Z,78.19
2023-05-11T09:22:56.361Z,79.37
2023-05-11T09:25:27.266Z,82.95
2023-05-11T09:27:55.259Z,82.76
2023-05-11T09:30:24.508Z,83.22
2023-05-11T09:32:53.815Z,83.41
2023-05-11T09:35:26.763Z,82.76
2023-05-11T09:38:02.371Z,81.25
2023-05-11T09:40:33.928Z,80.77
2023-05-11T09:43:03.722Z,81.67
2023-05-11T09:45:39.476Z,82.87
2023-05-11T09:48:08.225Z,84.62
2023-05-11T09:50:37.234Z,84.00
2023-05-11T09:53:05.235Z,82.02
2023-05-11T09:55:34.522Z,80.48
2023-05-11T09:58:02.406Z,79.69
2023-05-11T10:00:30.625Z,84.36
2023-05-11T10:03:03.200Z,82.53
2023-05-11T10:05:32.776Z,81.31
2023-05-11T10:08:02.256Z,83.31
2023-05-11T10:10:32.018Z,81.32
2023-05-11T10:13:07.515Z,84.35
2023-05-11T10:15:38.393Z,80.39
2023-05-11T10:18:07.985Z,83.59
2023-05-11T10:20:36.072Z,81.62
2023-05-11T10:23:04.814Z,83.17
2023-05-11T10:25:38.623Z,83.28
2023-05-11T10:28:11.601Z,84.33
2023-05-11T10:30:39.663Z,86.00
2023-05-11T10:33:13.503Z,84.86
2023-05-11T10:35:41.645Z,86.81
2023-05-11T10:38:09.744Z,85.12
2023-05-11T10:40:41.399Z,84.71
2023-05-11T10:43:38.676Z,84.43
2023-05-11T10:46:22.447Z,83.86
2023-05-11T10:49:10.364Z,83.40
2023-05-11T10:52:08.802Z,80.96
2023-05-11T10:54:53.392Z,80.66
2023-05-11T10:57:37.852Z,79.18
2023-05-11T11:00:43.761Z,83.69
2023-05-11T11:03:13.549Z,83.94
2023-05-11T11:05:43.756Z,81.39
2023-05-11T11:08:11.700Z,80.56
2023-05-11T11:10:43.784Z,79.47
2023-05-11T11:13:13.759Z,77.75
2023-05-11T11:16:13.250Z,78.41
2023-05-11T11:18:43.659Z,81.49
2023-05-11T11:21:15.619Z,78.55
2023-05-11T11:23:45.561Z,80.96
2023-05-11T11:26:15.909Z,80.49
2023-05-11T11:29:09.535Z,81.05
2023-05-11T11:31:39.459Z,82.60
2023-05-11T11:34:39.644Z,78.71
2023-05-11T11:37:09.760Z,78.97
2023-05-11T11:39:53.754Z,77.63
2023-05-11T11:42:35.520Z,78.09
2023-05-11T11:45:29.988Z,78.81
2023-05-11T11:48:13.449Z,78.35
2023-05-11T11:50:43.575Z,76.95
2023-05-11T11:53:13.088Z,74.43
2023-05-11T11:55:52.000Z,76.67
2023-05-11T11:58:58.449Z,74.82
2023-05-11T12:01:29.419Z,75.90
2023-05-11T12:04:38.307Z,75.05
2023-05-11T12:07:09.269Z,77.08
2023-05-11T12:09:39.867Z,77.70
2023-05-11T12:12:08.720Z,77.30
2023-05-11T12:14:37.208Z,76.66
2023-05-11T12:17:08.284Z,77.03
2023-05-11T12:19:39.974Z,70.81
2023-05-11T12:22:08.899Z,72.22
2023-05-11T12:24:37.154Z,71.94
2023-05-11T12:27:05.533Z,72.66
2023-05-11T12:29:33.573Z,70.03
2023-05-11T12:32:01.898Z,69.36
2023-05-11T12:34:29.784Z,69.80
2023-05-11T12:37:00.510Z,71.84
2023-05-11T12:39:29.431Z,71.10
2023-05-11T12:41:57.721Z,68.51
2023-05-11T12:44:27.952Z,70.38
2023-05-11T12:47:21.682Z,69.04
2023-05-11T12:49:49.698Z,68.31
2023-05-11T12:52:19.096Z,67.76
2023-05-11T12:54:51.351Z,68.39
2023-05-11T12:57:26.634Z,66.53
2023-05-11T13:00:12.599Z,69.11
2023-05-11T13:02:52.203Z,67.73
2023-05-11T13:05:24.805Z,65.20
2023-05-11T13:08:00.206Z,66.64
2023-05-11T13:10:28.698Z,64.65
2023-05-11T13:12:57.610Z,66.34
2023-05-11T13:15:28.506Z,65.32
2023-05-11T13:17:59.042Z,65.76
2023-05-11T13:20:29.593Z,67.19
2023-05-11T13:23:07.305Z,69.30
2023-05-11T13:25:36.921Z,66.55
2023-05-11T13:28:05.347Z,66.25
2023-05-11T13:30:35.147Z,66.57
2023-05-11T13:33:03.478Z,67.44
2023-05-11T13:35:31.455Z,65.73
2023-05-11T13:37:59.748Z,66.21
2023-05-11T13:40:29.091Z,67.59
2023-05-11T13:42:57.163Z,65.53
2023-05-11T13:45:25.142Z,66.46
2023-05-11T13:47:53.164Z,62.95
2023-05-11T13:50:21.208Z,64.91
2023-05-11T13:52:49.094Z,62.54
2023-05-11T13:55:17.334Z,63.34
2023-05-11T13:57:46.826Z,63.61
2023-05-11T14:00:18.263Z,62.04
2023-05-11T14:02:48.061Z,59.50
2023-05-11T14:05:16.246Z,59.89
2023-05-11T14:07:48.145Z,58.56
2023-05-11T14:10:16.953Z,58.26
2023-05-11T14:12:46.657Z,61.94
2023-05-11T14:15:14.880Z,60.80
2023-05-11T14:17:43.428Z,57.90
2023-05-11T14:20:12.929Z,59.16
2023-05-11T14:22:41.369Z,61.10
2023-05-11T14:25:11.904Z,61.59
2023-05-11T14:27:39.987Z,62.35
2023-05-11T14:30:10.695Z,58.78
2023-05-11T14:32:38.508Z,59.03
2023-05-11T14:35:06.984Z,58.99
2023-05-11T14:37:35.359Z,61.48
2023-05-11T14:40:03.313Z,61.57
2023-05-11T14:42:31.176Z,60.81
2023-05-11T14:44:59.045Z,59.06
2023-05-11T14:47:28.459Z,57.17
2023-05-11T14:49:56.557Z,59.73
2023-05-11T14:52:24.659Z,59.28
2023-05-11T14:54:52.790Z,59.60
2023-05-11T14:57:20.925Z,59.95
2023-05-11T14:59:59.011Z,59.56
2023-05-11T15:02:29.865Z,61.85
2023-05-11T15:04:57.803Z,59.88
2023-05-11T15:07:25.814Z,60.71
2023-05-11T15:09:54.382Z,61.44
2023-05-11T15:12:24.966Z,60.21
2023-05-11T15:14:52.953Z,60.34
2023-05-11T15:17:20.977Z,60.02
2023-05-11T15:19:50.329Z,60.41
2023-05-11T15:22:19.786Z,58.23
2023-05-11T15:24:48.049Z,60.36
2023-05-11T15:27:16.356Z,60.83
2023-05-11T15:29:44.596Z,61.66
2023-05-11T15:32:15.190Z,62.17
2023-05-11T15:34:58.109Z,61.21
2023-05-11T15:37:29.044Z,61.61
2023-05-11T15:39:57.356Z,63.39
2023-05-11T15:42:25.322Z,62.10
2023-05-11T15:44:53.476Z,60.43
2023-05-11T15:47:21.631Z,61.86
2023-05-11T15:49:49.552Z,62.11
2023-05-11T15:52:17.505Z,62.74
2023-05-11T15:54:46.921Z,61.41
2023-05-11T15:57:14.901Z,60.94
2023-05-11T15:59:42.811Z,62.46
2023-05-11T16:02:10.702Z,62.89
2023-05-11T16:04:38.599Z,62.25
2023-05-11T16:07:07.061Z,62.33
2023-05-11T16:09:35.224Z,61.01
2023-05-11T16:12:04.861Z,61.80
2023-05-11T16:14:32.844Z,64.13
2023-05-11T16:17:01.535Z,62.61
2023-05-11T16:19:30.153Z,63.52
2023-05-11T16:21:58.552Z,63.34
2023-05-11T16:24:26.921Z,63.59
2023-05-11T16:26:54.899Z,64.94
2023-05-11T16:29:26.207Z,64.96
2023-05-11T16:31:54.697Z,67.09
2023-05-11T16:34:23.316Z,67.07
2023-05-11T16:36:51.199Z,68.48
2023-05-11T16:39:19.128Z,67.01
2023-05-11T16:41:46.992Z,67.11
2023-05-11T16:44:14.814Z,66.06
2023-05-11T16:46:44.059Z,67.14
2023-05-11T16:49:11.986Z,67.61
2023-05-11T16:51:39.838Z,68.99
2023-05-11T16:54:08.106Z,69.26
2023-05-11T16:56:36.237Z,68.60
2023-05-11T16:59:06.633Z,68.18
2023-05-11T17:01:36.891Z,68.43
2023-05-11T17:04:06.353Z,69.99
2023-05-11T17:06:34.824Z,69.03
2023-05-11T17:09:03.271Z,66.81
2023-05-11T17:11:31.684Z,67.00
2023-05-11T17:13:59.928Z,68.01
2023-05-11T17:16:28.762Z,69.62
2023-05-11T17:18:58.963Z,69.19
2023-05-11T17:21:31.148Z,69.84
2023-05-11T17:23:59.124Z,70.49
2023-05-11T17:26:39.606Z,71.31
2023-05-11T17:32:38.141Z,73.11
2023-05-11T17:35:08.222Z,73.32
2023-05-11T17:37:40.383Z,74.39
2023-05-11T17:40:12.031Z,75.65
2023-05-11T17:42:39.886Z,74.80
2023-05-11T17:45:10.168Z,74.81
2023-05-11T17:47:38.243Z,73.97
2023-05-11T17:50:09.795Z,73.69
2023-05-11T17:52:39.395Z,74.52
2023-05-11T17:55:08.514Z,73.86
2023-05-11T17:57:36.507Z,73.76
2023-05-11T18:00:09.999Z,74.78
2023-05-11T18:02:39.637Z,75.18
2023-05-11T18:05:10.756Z,75.43
2023-05-11T18:07:40.315Z,73.82
2023-05-11T18:10:09.250Z,74.19
2023-05-11T18:12:37.147Z,74.51
2023-05-11T18:15:05.514Z,74.91
2023-05-11T18:17:33.439Z,73.67
2023-05-11T18:20:01.390Z,74.47
2023-05-11T18:22:30.845Z,74.41
2023-05-11T18:24:59.985Z,75.12
2023-05-11T18:27:28.190Z,76.19
2023-05-11T18:29:56.062Z,76.53
2023-05-11T18:32:23.933Z,78.04
2023-05-11T18:34:51.776Z,78.16
2023-05-11T18:37:19.788Z,79.21
2023-05-11T18:39:49.641Z,77.68
2023-05-11T18:42:19.080Z,78.58
2023-05-11T18:44:46.901Z,79.72
2023-05-11T18:47:14.762Z,80.56
2023-05-11T18:49:42.712Z,79.99
2023-05-11T18:52:12.188Z,80.72
2023-05-11T18:54:39.974Z,80.35
2023-05-11T18:57:11.290Z,80.85
2023-05-11T18:59:40.659Z,80.63
2023-05-11T19:02:08.507Z,80.02
2023-05-11T19:04:36.487Z,79.61
2023-05-11T19:07:04.446Z,78.60
2023-05-11T19:09:32.593Z,79.59
2023-05-11T19:12:00.481Z,79.39
2023-05-11T19:14:30.633Z,80.70
2023-05-11T19:16:59.869Z,81.47
2023-05-11T19:19:28.093Z,79.44
2023-05-11T19:21:55.934Z,78.35
2023-05-11T19:24:23.747Z,76.65
2023-05-11T19:27:05.342Z,78.04
2023-05-11T19:29:35.434Z,79.99
2023-05-11T19:32:05.237Z,80.63
2023-05-11T19:34:33.050Z,79.88
2023-05-11T19:37:01.082Z,81.53
2023-05-11T19:39:28.964Z,82.23
2023-05-11T19:41:56.822Z,82.43
2023-05-11T19:44:24.681Z,83.69
2023-05-11T19:46:52.616Z,82.02
2023-05-11T19:49:21.812Z,82.81
2023-05-11T19:51:49.734Z,82.03
2023-05-11T19:54:17.596Z,82.87
2023-05-11T19:56:45.762Z,84.14
2023-05-11T19:59:14.078Z,85.87
2023-05-11T20:01:42.024Z,86.61
2023-05-11T20:04:14.843Z,85.99
2023-05-11T20:06:44.193Z,85.79
2023-05-11T20:09:12.111Z,85.44
2023-05-11T20:11:39.907Z,86.70
2023-05-11T20:14:08.316Z,88.22
2023-05-11T20:16:36.191Z,88.63
2023-05-11T20:19:04.369Z,90.08
2023-05-11T20:21:33.643Z,89.79
2023-05-11T20:24:05.462Z,89.71
2023-05-11T20:26:33.323Z,89.24
2023-05-11T20:29:01.175Z,88.42
2023-05-11T20:31:29.116Z,88.44
2023-05-11T20:36:29.143Z,89.86
2023-05-11T20:38:56.985Z,89.21
2023-05-11T20:41:26.283Z,87.61
2023-05-11T20:43:54.164Z,88.33
2023-05-11T20:46:22.015Z,87.09
2023-05-11T20:48:51.924Z,87.20
2023-05-11T20:51:23.108Z,88.42
2023-05-11T20:53:51.589Z,88.00
2023-05-11T20:56:19.736Z,87.17
2023-05-11T20:58:49.042Z,86.92
2023-05-11T21:01:16.966Z,86.42
2023-05-11T21:03:45.052Z,87.49
2023-05-11T21:06:13.018Z,87.09
2023-05-11T21:08:43.052Z,86.47
2023-05-11T21:11:10.908Z,85.67
2023-05-11T21:13:38.745Z,86.23
2023-05-11T21:16:09.150Z,87.14
2023-05-11T21:18:37.109Z,87.79
2023-05-11T21:21:07.493Z,87.48
2023-05-11T21:23:35.280Z,86.97
2023-05-11T21:26:04.049Z,86.60
2023-05-11T21:28:32.687Z,86.97
2023-05-11T21:31:00.694Z,86.91
2023-05-11T21:33:29.914Z,86.59
2023-05-11T21:35:58.801Z,86.28
2023-05-11T21:38:26.637Z,86.24
2023-05-11T21:40:55.068Z,85.67
2023-05-11T21:43:23.514Z,84.78
2023-05-11T21:45:51.944Z,84.58
2023-05-11T21:48:19.913Z,85.08
2023-05-11T21:50:52.975Z,88.53
2023-05-11T21:53:21.279Z,89.21
2023-05-11T21:55:49.380Z,90.00
2023-05-11T21:58:17.573Z,89.67
2023-05-11T22:00:45.464Z,89.91
2023-05-11T22:03:13.898Z,89.44
2023-05-11T22:05:42.176Z,88.50
2023-05-11T22:08:15.418Z,87.93
2023-05-11T22:10:44.495Z,87.36
2023-05-11T22:13:12.450Z,86.32
2023-05-11T22:15:40.312Z,86.39
2023-05-11T22:18:08.313Z,86.75
2023-05-11T22:20:36.173Z,86.51
2023-05-11T22:23:04.534Z,86.06
2023-05-11T22:25:33.773Z,86.20
2023-05-11T22:28:01.735Z,86.19
2023-05-11T22:30:29.608Z,85.54
2023-05-11T22:32:57.562Z,84.81
2023-05-11T22:35:25.715Z,85.07
2023-05-11T22:37:54.221Z,84.70
2023-05-11T22:40:24.736Z,84.29
2023-05-11T22:42:53.972Z,84.88
2023-05-11T22:45:22.029Z,84.43
2023-05-11T22:47:49.886Z,84.82
2023-05-11T22:50:17.999Z,84.52
2023-05-11T22:52:47.187Z,83.92
2023-05-11T22:55:17.286Z,83.98
2023-05-11T22:57:45.349Z,84.60
2023-05-11T23:00:15.295Z,85.54
2023-05-11T23:02:45.540Z,84.61
2023-05-11T23:05:13.734Z,85.74
2023-05-11T23:07:41.688Z,87.49
2023-05-11T23:10:10.126Z,88.21
2023-05-11T23:12:38.109Z,88.50
2023-05-11T23:15:09.526Z,90.61
2023-05-11T23:17:41.257Z,90.51
2023-05-11T23:20:10.365Z,91.21
2023-05-11T23:22:40.717Z,90.85
2023-05-11T23:25:10.433Z,90.07
2023-05-11T23:27:38.388Z,90.24
2023-05-11T23:30:07.531Z,90.54
2023-05-11T23:32:35.470Z,91.10
2023-05-11T23:35:05.052Z,91.44
2023-05-11T23:37:33.102Z,91.12
2023-05-11T23:40:00.886Z,90.06
2023-05-11T23:42:28.619Z,89.21
2023-05-11T23:44:56.716Z,88.88
2023-05-11T23:47:24.640Z,88.87
2023-05-11T23:49:52.445Z,88.44
2023-05-11T23:52:21.881Z,88.18
2023-05-11T23:54:50.425Z,88.73
2023-05-11T23:57:18.219Z,89.32
2023-05-11T23:59:48.744Z,89.11
